sensor_id;sensor_type;location;lat;lon;timestamp;pressure;altitude;pressure_sealevel;temperature;humidity
7662;BME280;30314;48.184;11.510;2023-04-29T00:01:09;95604.69;;;9.14;100.00
7662;BME280;30314;48.184;11.510;2023-04-29T00:03:36;95613.59;;;9.18;100.00
7662;BME280;30314;48.184;11.510;2023-04-29T00:06:03;95614.72;;;9.12;100.00
7662;BME280;30314;48.184;11.510;2023-04-29T00:08:29;95626.75;;;9.23;100.00
7662;BME280;30314;48.184;11.510;2023-04-29T00:10:56;95606.59;;;9.08;100.00
7662;BME280;30314;48.184;11.510;2023-04-29T00:13:22;95638.88;;;9.19;100.00
7662;BME280;30314;48.184;11.510;2023-04-29T00:15:49;95602.81;;;8.95;100.00
7662;BME280;30314;48.184;11.510;2023-04-29T00:18:16;95636.22;;;9.19;100.00
7662;BME280;30314;48.184;11.510;2023-04-29T00:20:42;95632.59;;;9.20;100.00
7662;BME280;30314;48.184;11.510;2023-04-29T00:23:09;95628.41;;;9.14;100.00
7662;BME280;30314;48.184;11.510;2023-04-29T00:25:36;95605.81;;;9.08;100.00
7662;BME280;30314;48.184;11.510;2023-04-29T00:28:05;95625.50;;;9.15;100.00
7662;BME280;30314;48.184;11.510;2023-04-29T00:30:31;95550.47;;;8.64;100.00
7662;BME280;30314;48.184;11.510;2023-04-29T00:32:58;95597.69;;;9.04;100.00
7662;BME280;30314;48.184;11.510;2023-04-29T00:35:25;95613.94;;;9.11;100.00
7662;BME280;30314;48.184;11.510;2023-04-29T00:37:52;95616.53;;;9.16;100.00
7662;BME280;30314;48.184;11.510;2023-04-29T00:40:19;95606.31;;;9.10;100.00
7662;BME280;30314;48.184;11.510;2023-04-29T00:42:45;95628.75;;;9.32;100.00
7662;BME280;30314;48.184;11.510;2023-04-29T00:45:12;95607.81;;;9.21;100.00
7662;BME280;30314;48.184;11.510;2023-04-29T00:47:38;95565.88;;;9.00;100.00
7662;BME280;30314;48.184;11.510;2023-04-29T00:50:05;95601.47;;;9.22;100.00
7662;BME280;30314;48.184;11.510;2023-04-29T00:52:33;95601.13;;;9.29;100.00
7662;BME280;30314;48.184;11.510;2023-04-29T00:55:00;95608.09;;;9.39;100.00
7662;BME280;30314;48.184;11.510;2023-04-29T00:57:27;95606.88;;;9.31;100.00
7662;BME280;30314;48.184;11.510;2023-04-29T00:59:56;95543.34;;;8.89;100.00
7662;BME280;30314;48.184;11.510;2023-04-29T01:02:24;95610.66;;;9.44;100.00
7662;BME280;30314;48.184;11.510;2023-04-29T01:04:52;95614.19;;;9.39;100.00
7662;BME280;30314;48.184;11.510;2023-04-29T01:07:50;95611.22;;;9.41;100.00
7662;BME280;30314;48.184;11.510;2023-04-29T01:10:26;95568.31;;;9.16;100.00
7662;BME280;30314;48.184;11.510;2023-04-29T01:13:06;95603.06;;;9.42;100.00
7662;BME280;30314;48.184;11.510;2023-04-29T01:16:02;95610.38;;;9.46;100.00
7662;BME280;30314;48.184;11.510;2023-04-29T01:18:36;95595.19;;;9.37;100.00
7662;BME280;30314;48.184;11.510;2023-04-29T01:21:05;95589.78;;;9.28;100.00
7662;BME280;30314;48.184;11.510;2023-04-29T01:23:32;95598.19;;;9.30;100.00
7662;BME280;30314;48.184;11.510;2023-04-29T01:25:58;95607.66;;;9.32;100.00
7662;BME280;30314;48.184;11.510;2023-04-29T01:28:49;95615.06;;;9.29;100.00
7662;BME280;30314;48.184;11.510;2023-04-29T01:31:25;95615.56;;;9.32;100.00
7662;BME280;30314;48.184;11.510;2023-04-29T01:36:51;95615.06;;;9.29;100.00
7662;BME280;30314;48.184;11.510;2023-04-29T01:39:30;95597.78;;;9.18;100.00
7662;BME280;30314;48.184;11.510;2023-04-29T01:42:24;95601.66;;;9.26;100.00
7662;BME280;30314;48.184;11.510;2023-04-29T01:44:59;95597.00;;;9.18;100.00
7662;BME280;30314;48.184;11.510;2023-04-29T01:47:28;95607.50;;;9.23;100.00
7662;BME280;30314;48.184;11.510;2023-04-29T01:49:55;95608.31;;;9.23;100.00
7662;BME280;30314;48.184;11.510;2023-04-29T01:52:21;95583.53;;;9.19;100.00
7662;BME280;30314;48.184;11.510;2023-04-29T01:54:53;95596.13;;;9.27;100.00
7662;BME280;30314;48.184;11.510;2023-04-29T01:57:20;95609.25;;;9.33;100.00
7662;BME280;30314;48.184;11.510;2023-04-29T01:59:58;95571.06;;;9.06;100.00
7662;BME280;30314;48.184;11.510;2023-04-29T02:02:44;95598.34;;;9.20;100.00
7662;BME280;30314;48.184;11.510;2023-04-29T02:05:22;95581.06;;;9.09;100.00
7662;BME280;30314;48.184;11.510;2023-04-29T02:07:53;95568.66;;;9.09;100.00
7662;BME280;30314;48.184;11.510;2023-04-29T02:10:20;95549.00;;;9.01;100.00
7662;BME280;30314;48.184;11.510;2023-04-29T02:12:51;95574.16;;;9.13;100.00
7662;BME280;30314;48.184;11.510;2023-04-29T02:15:19;95588.81;;;9.19;100.00
7662;BME280;30314;48.184;11.510;2023-04-29T02:17:45;95592.31;;;9.14;100.00
7662;BME280;30314;48.184;11.510;2023-04-29T02:20:12;95589.38;;;9.16;100.00
7662;BME280;30314;48.184;11.510;2023-04-29T02:22:38;95587.81;;;9.15;100.00
7662;BME280;30314;48.184;11.510;2023-04-29T02:25:05;95605.31;;;9.30;100.00
7662;BME280;30314;48.184;11.510;2023-04-29T02:27:32;95594.78;;;9.30;100.00
7662;BME280;30314;48.184;11.510;2023-04-29T02:29:58;95601.16;;;9.24;100.00
7662;BME280;30314;48.184;11.510;2023-04-29T02:32:25;95579.91;;;9.15;100.00
7662;BME280;30314;48.184;11.510;2023-04-29T02:34:51;95566.84;;;9.05;100.00
7662;BME280;30314;48.184;11.510;2023-04-29T02:37:20;95537.00;;;8.90;100.00
7662;BME280;30314;48.184;11.510;2023-04-29T02:39:46;95538.56;;;8.91;100.00
7662;BME280;30314;48.184;11.510;2023-04-29T02:42:13;95536.75;;;8.92;100.00
7662;BME280;30314;48.184;11.510;2023-04-29T02:44:39;95579.34;;;9.18;100.00
7662;BME280;30314;48.184;11.510;2023-04-29T02:47:07;95601.84;;;9.35;100.00
7662;BME280;30314;48.184;11.510;2023-04-29T02:49:34;95605.53;;;9.34;100.00
7662;BME280;30314;48.184;11.510;2023-04-29T02:52:01;95591.69;;;9.23;100.00
7662;BME280;30314;48.184;11.510;2023-04-29T02:54:27;95603.97;;;9.33;100.00
7662;BME280;30314;48.184;11.510;2023-04-29T02:56:54;95602.97;;;9.28;100.00
7662;BME280;30314;48.184;11.510;2023-04-29T02:59:20;95533.88;;;8.88;100.00
7662;BME280;30314;48.184;11.510;2023-04-29T03:01:47;95610.75;;;9.39;100.00
7662;BME280;30314;48.184;11.510;2023-04-29T03:04:14;95544.28;;;8.98;100.00
7662;BME280;30314;48.184;11.510;2023-04-29T03:06:41;95534.88;;;8.92;100.00
7662;BME280;30314;48.184;11.510;2023-04-29T03:09:10;95545.59;;;9.01;100.00
7662;BME280;30314;48.184;11.510;2023-04-29T03:11:38;95616.38;;;9.51;100.00
7662;BME280;30314;48.184;11.510;2023-04-29T03:14:04;95612.41;;;9.54;100.00
7662;BME280;30314;48.184;11.510;2023-04-29T03:16:31;95618.44;;;9.54;100.00
7662;BME280;30314;48.184;11.510;2023-04-29T03:18:58;95598.19;;;9.50;100.00
7662;BME280;30314;48.184;11.510;2023-04-29T03:21:24;95573.91;;;9.34;100.00
7662;BME280;30314;48.184;11.510;2023-04-29T03:23:53;95612.53;;;9.63;100.00
7662;BME280;30314;48.184;11.510;2023-04-29T03:26:26;95591.13;;;9.45;100.00
7662;BME280;30314;48.184;11.510;2023-04-29T03:28:52;95597.44;;;9.49;100.00
7662;BME280;30314;48.184;11.510;2023-04-29T03:31:19;95605.56;;;9.53;100.00
7662;BME280;30314;48.184;11.510;2023-04-29T03:33:48;95563.50;;;9.23;100.00
7662;BME280;30314;48.184;11.510;2023-04-29T03:36:16;95622.59;;;9.61;100.00
7662;BME280;30314;48.184;11.510;2023-04-29T03:38:55;95598.00;;;9.46;100.00
7662;BME280;30314;48.184;11.510;2023-04-29T03:41:22;95601.69;;;9.45;100.00
7662;BME280;30314;48.184;11.510;2023-04-29T03:43:49;95596.94;;;9.47;100.00
7662;BME280;30314;48.184;11.510;2023-04-29T03:46:17;95580.19;;;9.38;100.00
7662;BME280;30314;48.184;11.510;2023-04-29T03:48:43;95608.97;;;9.53;100.00
7662;BME280;30314;48.184;11.510;2023-04-29T03:51:11;95609.25;;;9.52;100.00
7662;BME280;30314;48.184;11.510;2023-04-29T03:53:38;95561.44;;;9.20;100.00
7662;BME280;30314;48.184;11.510;2023-04-29T03:56:05;95595.66;;;9.44;100.00
7662;BME280;30314;48.184;11.510;2023-04-29T03:58:32;95611.69;;;9.48;100.00
7662;BME280;30314;48.184;11.510;2023-04-29T04:00:59;95593.94;;;9.35;100.00
7662;BME280;30314;48.184;11.510;2023-04-29T04:03:34;95613.59;;;9.42;100.00
7662;BME280;30314;48.184;11.510;2023-04-29T04:06:01;95595.78;;;9.34;100.00
7662;BME280;30314;48.184;11.510;2023-04-29T04:08:28;95621.22;;;9.44;100.00
7662;BME280;30314;48.184;11.510;2023-04-29T04:11:03;95616.50;;;9.41;100.00
7662;BME280;30314;48.184;11.510;2023-04-29T04:13:41;95625.22;;;9.41;100.00
7662;BME280;30314;48.184;11.510;2023-04-29T04:16:09;95621.22;;;9.44;100.00
7662;BME280;30314;48.184;11.510;2023-04-29T04:18:39;95609.03;;;9.29;100.00
7662;BME280;30314;48.184;11.510;2023-04-29T04:21:07;95617.66;;;9.35;100.00
7662;BME280;30314;48.184;11.510;2023-04-29T04:23:35;95529.13;;;8.66;100.00
7662;BME280;30314;48.184;11.510;2023-04-29T04:26:03;95608.81;;;9.25;100.00
7662;BME280;30314;48.184;11.510;2023-04-29T04:28:49;95632.66;;;9.34;100.00
7662;BME280;30314;48.184;11.510;2023-04-29T04:31:38;95616.22;;;9.23;100.00
7662;BME280;30314;48.184;11.510;2023-04-29T04:34:05;95612.00;;;9.22;100.00
7662;BME280;30314;48.184;11.510;2023-04-29T04:36:33;95612.16;;;9.31;100.00
7662;BME280;30314;48.184;11.510;2023-04-29T04:38:59;95575.06;;;9.03;100.00
7662;BME280;30314;48.184;11.510;2023-04-29T04:41:26;95631.47;;;9.46;100.00
7662;BME280;30314;48.184;11.510;2023-04-29T04:43:52;95638.81;;;9.49;100.00
7662;BME280;30314;48.184;11.510;2023-04-29T04:46:58;95636.13;;;9.54;100.00
7662;BME280;30314;48.184;11.510;2023-04-29T04:49:44;95639.47;;;9.60;100.00
7662;BME280;30314;48.184;11.510;2023-04-29T04:52:11;95648.66;;;9.62;100.00
7662;BME280;30314;48.184;11.510;2023-04-29T04:54:38;95586.66;;;9.26;100.00
7662;BME280;30314;48.184;11.510;2023-04-29T04:57:13;95645.88;;;9.72;100.00
7662;BME280;30314;48.184;11.510;2023-04-29T04:59:40;95602.22;;;9.47;100.00
7662;BME280;30314;48.184;11.510;2023-04-29T05:02:07;95639.28;;;9.75;100.00
7662;BME280;30314;48.184;11.510;2023-04-29T05:04:34;95650.88;;;9.93;100.00
7662;BME280;30314;48.184;11.510;2023-04-29T05:07:00;95644.00;;;9.92;100.00
7662;BME280;30314;48.184;11.510;2023-04-29T05:09:33;95654.72;;;10.01;100.00
7662;BME280;30314;48.184;11.510;2023-04-29T05:12:00;95623.50;;;9.89;100.00
7662;BME280;30314;48.184;11.510;2023-04-29T05:14:30;95638.31;;;10.04;100.00
7662;BME280;30314;48.184;11.510;2023-04-29T05:17:00;95629.34;;;10.05;100.00
7662;BME280;30314;48.184;11.510;2023-04-29T05:19:27;95665.59;;;10.33;100.00
7662;BME280;30314;48.184;11.510;2023-04-29T05:21:54;95651.13;;;10.30;100.00
7662;BME280;30314;48.184;11.510;2023-04-29T05:24:22;95628.50;;;10.24;100.00
7662;BME280;30314;48.184;11.510;2023-04-29T05:26:50;95660.34;;;10.47;100.00
7662;BME280;30314;48.184;11.510;2023-04-29T05:29:19;95678.59;;;10.62;100.00
7662;BME280;30314;48.184;11.510;2023-04-29T05:31:52;95663.41;;;10.54;100.00
7662;BME280;30314;48.184;11.510;2023-04-29T05:34:19;95675.28;;;10.70;100.00
7662;BME280;30314;48.184;11.510;2023-04-29T05:36:54;95665.31;;;10.67;100.00
7662;BME280;30314;48.184;11.510;2023-04-29T05:39:21;95656.31;;;10.82;100.00
7662;BME280;30314;48.184;11.510;2023-04-29T05:42:00;95639.38;;;10.69;100.00
7662;BME280;30314;48.184;11.510;2023-04-29T05:44:45;95679.81;;;10.98;100.00
7662;BME280;30314;48.184;11.510;2023-04-29T05:47:13;95684.06;;;11.13;100.00
7662;BME280;30314;48.184;11.510;2023-04-29T05:49:41;95688.88;;;11.25;100.00
7662;BME280;30314;48.184;11.510;2023-04-29T05:52:09;95630.91;;;11.00;100.00
7662;BME280;30314;48.184;11.510;2023-04-29T05:54:42;95701.59;;;11.51;100.00
7662;BME280;30314;48.184;11.510;2023-04-29T05:57:12;95694.38;;;11.43;100.00
7662;BME280;30314;48.184;11.510;2023-04-29T05:59:39;95710.50;;;11.41;100.00
7662;BME280;30314;48.184;11.510;2023-04-29T06:02:07;95710.31;;;11.51;100.00
7662;BME280;30314;48.184;11.510;2023-04-29T06:04:38;95705.91;;;11.61;100.00
7662;BME280;30314;48.184;11.510;2023-04-29T06:07:21;95715.69;;;11.60;100.00
7662;BME280;30314;48.184;11.510;2023-04-29T06:09:57;95696.63;;;11.49;100.00
7662;BME280;30314;48.184;11.510;2023-04-29T06:12:30;95724.31;;;11.66;100.00
7662;BME280;30314;48.184;11.510;2023-04-29T06:15:03;95711.78;;;11.58;100.00
7662;BME280;30314;48.184;11.510;2023-04-29T06:17:32;95707.09;;;11.54;100.00
7662;BME280;30314;48.184;11.510;2023-04-29T06:20:03;95727.25;;;11.78;100.00
7662;BME280;30314;48.184;11.510;2023-04-29T06:22:31;95724.41;;;11.75;100.00
7662;BME280;30314;48.184;11.510;2023-04-29T13:15:00;95759.81;;;16.37;77.15
7662;BME280;30314;48.184;11.510;2023-04-29T13:17:27;95745.69;;;16.36;74.38
7662;BME280;30314;48.184;11.510;2023-04-29T13:19:53;95760.06;;;16.65;73.37
7662;BME280;30314;48.184;11.510;2023-04-29T13:22:20;95753.22;;;16.55;75.68
7662;BME280;30314;48.184;11.510;2023-04-29T13:24:46;95754.19;;;16.51;71.81
7662;BME280;30314;48.184;11.510;2023-04-29T13:27:13;95751.38;;;16.47;75.05
7662;BME280;30314;48.184;11.510;2023-04-29T13:29:40;95751.97;;;16.53;76.59
7662;BME280;30314;48.184;11.510;2023-04-29T13:32:06;95749.97;;;16.49;76.03
7662;BME280;30314;48.184;11.510;2023-04-29T13:34:34;95750.28;;;16.48;74.00
7662;BME280;30314;48.184;11.510;2023-04-29T13:37:01;95764.97;;;16.54;75.27
7662;BME280;30314;48.184;11.510;2023-04-29T13:39:27;95767.47;;;16.59;73.12
7662;BME280;30314;48.184;11.510;2023-04-29T13:41:54;95755.75;;;16.52;73.41
7662;BME280;30314;48.184;11.510;2023-04-29T13:44:24;95765.50;;;16.47;74.34
7662;BME280;30314;48.184;11.510;2023-04-29T13:47:04;95750.75;;;16.50;70.26
7662;BME280;30314;48.184;11.510;2023-04-29T13:49:31;95751.28;;;16.43;72.07
7662;BME280;30314;48.184;11.510;2023-04-29T13:52:18;95756.63;;;16.43;67.85
7662;BME280;30314;48.184;11.510;2023-04-29T13:55:04;95753.03;;;16.60;71.19
7662;BME280;30314;48.184;11.510;2023-04-29T13:57:51;95750.94;;;16.66;70.02
7662;BME280;30314;48.184;11.510;2023-04-29T14:00:38;95758.63;;;16.68;72.45
7662;BME280;30314;48.184;11.510;2023-04-29T14:03:24;95750.19;;;16.66;68.95
7662;BME280;30314;48.184;11.510;2023-04-29T14:05:51;95758.84;;;16.62;75.30
7662;BME280;30314;48.184;11.510;2023-04-29T14:08:18;95761.50;;;16.62;78.45
7662;BME280;30314;48.184;11.510;2023-04-29T14:10:45;95761.22;;;16.55;77.24
7662;BME280;30314;48.184;11.510;2023-04-29T14:13:11;95754.94;;;16.60;76.18
7662;BME280;30314;48.184;11.510;2023-04-29T14:15:37;95759.59;;;16.63;77.70
7662;BME280;30314;48.184;11.510;2023-04-29T14:18:04;95760.31;;;16.51;76.05
7662;BME280;30314;48.184;11.510;2023-04-29T14:20:33;95759.66;;;16.54;78.22
7662;BME280;30314;48.184;11.510;2023-04-29T14:22:59;95757.81;;;16.46;77.94
7662;BME280;30314;48.184;11.510;2023-04-29T14:25:26;95767.72;;;16.24;77.86
7662;BME280;30314;48.184;11.510;2023-04-29T14:27:54;95764.47;;;16.18;80.58
7662;BME280;30314;48.184;11.510;2023-04-29T14:30:21;95766.63;;;16.25;81.08
7662;BME280;30314;48.184;11.510;2023-04-29T14:32:47;95777.06;;;16.30;83.99
7662;BME280;30314;48.184;11.510;2023-04-29T14:35:14;95778.50;;;16.49;81.15
7662;BME280;30314;48.184;11.510;2023-04-29T14:37:41;95780.53;;;16.52;78.32
7662;BME280;30314;48.184;11.510;2023-04-29T14:40:08;95787.00;;;16.42;79.06
7662;BME280;30314;48.184;11.510;2023-04-29T14:42:34;95784.94;;;16.48;75.62
7662;BME280;30314;48.184;11.510;2023-04-29T14:45:01;95792.63;;;16.49;76.87
7662;BME280;30314;48.184;11.510;2023-04-29T14:47:28;95791.63;;;16.54;78.62
7662;BME280;30314;48.184;11.510;2023-04-29T14:49:54;95796.59;;;16.43;77.90
7662;BME280;30314;48.184;11.510;2023-04-29T14:52:21;95789.44;;;16.35;77.72
7662;BME280;30314;48.184;11.510;2023-04-29T14:54:51;95789.66;;;16.21;77.78
7662;BME280;30314;48.184;11.510;2023-04-29T14:57:18;95798.50;;;16.13;76.96
7662;BME280;30314;48.184;11.510;2023-04-29T14:59:45;95796.66;;;16.04;77.10
7662;BME280;30314;48.184;11.510;2023-04-29T15:02:11;95795.59;;;15.97;76.98
7662;BME280;30314;48.184;11.510;2023-04-29T15:04:38;95791.38;;;15.96;75.68
7662;BME280;30314;48.184;11.510;2023-04-29T15:07:09;95792.75;;;16.02;76.66
7662;BME280;30314;48.184;11.510;2023-04-29T15:09:36;95801.47;;;16.11;75.01
7662;BME280;30314;48.184;11.510;2023-04-29T15:12:02;95790.47;;;16.22;77.48
7662;BME280;30314;48.184;11.510;2023-04-29T15:14:29;95800.97;;;16.18;77.75
7662;BME280;30314;48.184;11.510;2023-04-29T15:16:56;95805.03;;;16.24;78.67
7662;BME280;30314;48.184;11.510;2023-04-29T15:19:22;95794.75;;;16.14;72.91
7662;BME280;30314;48.184;11.510;2023-04-29T15:21:50;95809.94;;;16.13;76.77
7662;BME280;30314;48.184;11.510;2023-04-29T15:24:18;95820.38;;;15.88;77.57
7662;BME280;30314;48.184;11.510;2023-04-29T15:26:44;95816.06;;;15.75;78.58
7662;BME280;30314;48.184;11.510;2023-04-29T15:29:11;95828.41;;;15.80;78.32
7662;BME280;30314;48.184;11.510;2023-04-29T15:31:38;95828.91;;;15.73;78.11
7662;BME280;30314;48.184;11.510;2023-04-29T15:34:04;95810.06;;;15.57;81.09
7662;BME280;30314;48.184;11.510;2023-04-29T15:36:31;95826.09;;;15.69;77.68
7662;BME280;30314;48.184;11.510;2023-04-29T15:38:58;95818.94;;;15.61;77.64
7662;BME280;30314;48.184;11.510;2023-04-29T15:41:25;95821.44;;;15.66;72.93
7662;BME280;30314;48.184;11.510;2023-04-29T15:43:52;95818.56;;;15.80;78.59
7662;BME280;30314;48.184;11.510;2023-04-29T15:46:18;95824.53;;;15.77;79.21
7662;BME280;30314;48.184;11.510;2023-04-29T15:48:45;95823.75;;;15.76;76.65
7662;BME280;30314;48.184;11.510;2023-04-29T15:51:12;95820.16;;;15.72;77.33
7662;BME280;30314;48.184;11.510;2023-04-29T15:53:41;95839.38;;;15.87;74.16
7662;BME280;30314;48.184;11.510;2023-04-29T15:56:09;95840.94;;;15.88;70.66
7662;BME280;30314;48.184;11.510;2023-04-29T15:58:36;95821.88;;;15.68;73.79
7662;BME280;30314;48.184;11.510;2023-04-29T16:01:02;95833.03;;;15.70;73.64
7662;BME280;30314;48.184;11.510;2023-04-29T16:03:30;95846.66;;;15.60;71.57
7662;BME280;30314;48.184;11.510;2023-04-29T16:05:56;95840.72;;;15.54;72.68
7662;BME280;30314;48.184;11.510;2023-04-29T16:08:23;95837.00;;;15.46;73.92
7662;BME280;30314;48.184;11.510;2023-04-29T16:10:50;95850.44;;;15.59;73.49
7662;BME280;30314;48.184;11.510;2023-04-29T16:13:17;95850.28;;;15.55;75.00
7662;BME280;30314;48.184;11.510;2023-04-29T16:15:43;95847.31;;;15.57;75.43
7662;BME280;30314;48.184;11.510;2023-04-29T16:18:10;95856.03;;;15.66;75.53
7662;BME280;30314;48.184;11.510;2023-04-29T16:20:37;95858.69;;;15.66;74.82
7662;BME280;30314;48.184;11.510;2023-04-29T16:23:03;95855.75;;;15.59;76.58
7662;BME280;30314;48.184;11.510;2023-04-29T16:25:30;95869.22;;;15.54;78.84
7662;BME280;30314;48.184;11.510;2023-04-29T16:27:56;95860.50;;;15.44;80.99
7662;BME280;30314;48.184;11.510;2023-04-29T16:30:23;95863.91;;;15.36;82.26
7662;BME280;30314;48.184;11.510;2023-04-29T16:32:49;95862.97;;;15.23;78.05
7662;BME280;30314;48.184;11.510;2023-04-29T16:35:17;95866.41;;;15.32;76.64
7662;BME280;30314;48.184;11.510;2023-04-29T16:37:43;95874.13;;;15.25;74.90
7662;BME280;30314;48.184;11.510;2023-04-29T16:40:10;95867.06;;;15.20;76.40
7662;BME280;30314;48.184;11.510;2023-04-29T16:42:37;95881.59;;;15.23;75.63
7662;BME280;30314;48.184;11.510;2023-04-29T16:45:04;95883.16;;;15.15;76.90
7662;BME280;30314;48.184;11.510;2023-04-29T16:47:30;95879.13;;;15.09;76.50
7662;BME280;30314;48.184;11.510;2023-04-29T16:49:57;95889.59;;;15.05;79.78
7662;BME280;30314;48.184;11.510;2023-04-29T16:52:24;95890.69;;;15.04;80.07
7662;BME280;30314;48.184;11.510;2023-04-29T16:54:50;95900.88;;;15.11;77.18
7662;BME280;30314;48.184;11.510;2023-04-29T16:57:16;95897.59;;;14.97;76.89
7662;BME280;30314;48.184;11.510;2023-04-29T16:59:43;95892.91;;;14.85;81.03
7662;BME280;30314;48.184;11.510;2023-04-29T17:02:10;95885.97;;;14.66;81.63
7662;BME280;30314;48.184;11.510;2023-04-29T17:04:36;95898.34;;;14.71;82.93
7662;BME280;30314;48.184;11.510;2023-04-29T17:07:03;95891.47;;;14.61;86.95
7662;BME280;30314;48.184;11.510;2023-04-29T17:09:30;95918.34;;;14.59;88.00
7662;BME280;30314;48.184;11.510;2023-04-29T17:11:56;95912.06;;;14.46;90.60
7662;BME280;30314;48.184;11.510;2023-04-29T17:14:23;95914.41;;;14.48;90.32
7662;BME280;30314;48.184;11.510;2023-04-29T17:16:50;95908.63;;;14.46;93.08
7662;BME280;30314;48.184;11.510;2023-04-29T17:19:17;95927.69;;;14.48;92.85
7662;BME280;30314;48.184;11.510;2023-04-29T17:21:43;95906.09;;;14.32;93.51
7662;BME280;30314;48.184;11.510;2023-04-29T17:24:10;95919.66;;;14.21;94.43
7662;BME280;30314;48.184;11.510;2023-04-29T17:26:37;95933.88;;;14.26;95.12
7662;BME280;30314;48.184;11.510;2023-04-29T17:29:03;95932.94;;;14.21;95.16
7662;BME280;30314;48.184;11.510;2023-04-29T17:31:30;95926.75;;;14.12;95.34
7662;BME280;30314;48.184;11.510;2023-04-29T17:34:11;95943.78;;;14.11;94.85
7662;BME280;30314;48.184;11.510;2023-04-29T17:36:45;95940.03;;;14.12;92.77
7662;BME280;30314;48.184;11.510;2023-04-29T17:39:12;95935.31;;;14.00;93.95
7662;BME280;30314;48.184;11.510;2023-04-29T17:41:39;95931.84;;;14.00;93.51
7662;BME280;30314;48.184;11.510;2023-04-29T17:44:06;95940.38;;;14.11;93.74
7662;BME280;30314;48.184;11.510;2023-04-29T17:46:36;95943.13;;;14.05;93.51
7662;BME280;30314;48.184;11.510;2023-04-29T17:49:03;95943.38;;;13.95;92.96
7662;BME280;30314;48.184;11.510;2023-04-29T17:51:30;95952.09;;;13.87;95.61
7662;BME280;30314;48.184;11.510;2023-04-29T17:54:00;95938.63;;;13.74;97.69
7662;BME280;30314;48.184;11.510;2023-04-29T17:56:27;95946.09;;;13.72;98.07
7662;BME280;30314;48.184;11.510;2023-04-29T17:58:53;95952.97;;;13.73;98.38
7662;BME280;30314;48.184;11.510;2023-04-29T18:01:20;95948.34;;;13.56;99.05
7662;BME280;30314;48.184;11.510;2023-04-29T18:03:47;95966.97;;;13.65;99.09
7662;BME280;30314;48.184;11.510;2023-04-29T18:06:16;95966.97;;;13.65;98.85
7662;BME280;30314;48.184;11.510;2023-04-29T18:08:45;95975.06;;;13.60;99.23
7662;BME280;30314;48.184;11.510;2023-04-29T18:11:12;95968.75;;;13.56;99.85
7662;BME280;30314;48.184;11.510;2023-04-29T18:13:39;95985.09;;;13.49;99.89
7662;BME280;30314;48.184;11.510;2023-04-29T18:16:07;95986.09;;;13.53;100.00
7662;BME280;30314;48.184;11.510;2023-04-29T18:18:34;95984.44;;;13.43;100.00
7662;BME280;30314;48.184;11.510;2023-04-29T18:21:03;95979.91;;;13.44;100.00
7662;BME280;30314;48.184;11.510;2023-04-29T18:23:30;95991.44;;;13.39;100.00
7662;BME280;30314;48.184;11.510;2023-04-29T18:25:56;95986.94;;;13.25;100.00
7662;BME280;30314;48.184;11.510;2023-04-29T18:28:23;95979.59;;;13.22;100.00
7662;BME280;30314;48.184;11.510;2023-04-29T18:30:51;95995.38;;;13.28;100.00
7662;BME280;30314;48.184;11.510;2023-04-29T18:33:17;95990.09;;;13.28;100.00
7662;BME280;30314;48.184;11.510;2023-04-29T18:35:44;95990.28;;;13.31;100.00
7662;BME280;30314;48.184;11.510;2023-04-29T18:38:11;95988.31;;;13.23;100.00
7662;BME280;30314;48.184;11.510;2023-04-29T18:40:42;95996.59;;;13.21;100.00
7662;BME280;30314;48.184;11.510;2023-04-29T18:43:08;95994.75;;;13.08;100.00
7662;BME280;30314;48.184;11.510;2023-04-29T18:45:37;95996.41;;;13.18;100.00
7662;BME280;30314;48.184;11.510;2023-04-29T18:48:04;96006.72;;;13.19;100.00
7662;BME280;30314;48.184;11.510;2023-04-29T18:50:32;96013.31;;;13.08;100.00
7662;BME280;30314;48.184;11.510;2023-04-29T18:52:58;96004.69;;;13.02;100.00
7662;BME280;30314;48.184;11.510;2023-04-29T18:55:25;96008.09;;;13.03;100.00
7662;BME280;30314;48.184;11.510;2023-04-29T18:57:52;96015.22;;;12.93;100.00
7662;BME280;30314;48.184;11.510;2023-04-29T19:00:18;96028.75;;;12.92;100.00
7662;BME280;30314;48.184;11.510;2023-04-29T19:02:45;96037.91;;;12.86;100.00
7662;BME280;30314;48.184;11.510;2023-04-29T19:05:11;96027.50;;;12.75;100.00
7662;BME280;30314;48.184;11.510;2023-04-29T19:07:39;96032.88;;;12.84;100.00
7662;BME280;30314;48.184;11.510;2023-04-29T19:10:06;96039.19;;;12.74;100.00
7662;BME280;30314;48.184;11.510;2023-04-29T19:12:32;96037.88;;;12.72;100.00
7662;BME280;30314;48.184;11.510;2023-04-29T19:14:59;96035.81;;;12.68;100.00
7662;BME280;30314;48.184;11.510;2023-04-29T19:17:26;96018.44;;;12.48;100.00
7662;BME280;30314;48.184;11.510;2023-04-29T19:19:53;96030.97;;;12.43;100.00
7662;BME280;30314;48.184;11.510;2023-04-29T19:22:20;96046.69;;;12.53;100.00
7662;BME280;30314;48.184;11.510;2023-04-29T19:24:47;96035.69;;;12.46;100.00
7662;BME280;30314;48.184;11.510;2023-04-29T19:27:13;96043.72;;;12.40;100.00
7662;BME280;30314;48.184;11.510;2023-04-29T19:29:40;96041.16;;;12.35;100.00
7662;BME280;30314;48.184;11.510;2023-04-29T19:32:07;96053.16;;;12.47;100.00
7662;BME280;30314;48.184;11.510;2023-04-29T19:34:33;96031.81;;;12.24;100.00
7662;BME280;30314;48.184;11.510;2023-04-29T19:37:00;96052.06;;;12.34;100.00
7662;BME280;30314;48.184;11.510;2023-04-29T19:39:27;96010.59;;;11.96;100.00
7662;BME280;30314;48.184;11.510;2023-04-29T19:41:54;96021.09;;;12.01;100.00
7662;BME280;30314;48.184;11.510;2023-04-29T19:44:21;96058.69;;;12.17;100.00
7662;BME280;30314;48.184;11.510;2023-04-29T19:46:52;96055.91;;;12.08;100.00
7662;BME280;30314;48.184;11.510;2023-04-29T19:49:19;96037.63;;;11.93;100.00
7662;BME280;30314;48.184;11.510;2023-04-29T19:51:45;96070.00;;;12.04;100.00
7662;BME280;30314;48.184;11.510;2023-04-29T19:54:12;96053.50;;;11.93;100.00
7662;BME280;30314;48.184;11.510;2023-04-29T19:56:39;95997.78;;;11.51;100.00
7662;BME280;30314;48.184;11.510;2023-04-29T19:59:05;96026.31;;;11.73;100.00